Airfield :
LOGIN :

Register | Disclaimer

   EN    FR    IT 

 










Legend :    VFR   Marginal VFR   IFR   Intensive IFR   Very Intensive IFR
Visi :
Ceiling :
>= 8 km
>= 3000ft
5 to 8 km
1000 to 3000 ft
1500m to 5 km
500 to 1000 ft
800 to 1500m
200 to 500 ft
< 800m
< 200 ft
Symbols :   Thunderstorms  Fog  Heavy snow  Heavy precipitations  Wind > 20 kt
SIGMETs :     Misc.  Thunderstorms  Icing  Turbulence  Mountain Waves  Volcanic Ashes






- Airport Elevation : 405 ft
- IATA code : ODH


EGVO - RAF Odiham

CURRENT METAR :
  • 052350Z 21009KT 9999 BKN005 17/17 Q1015 TEMPO 5000 -DZ RMK YLO1 TEMPO YLO1

EXPIRED METARs :
  • 052250Z 20011KT 9999 OVC005 17/16 Q1014 TEMPO 5000 -DZ RMK YLO1 TEMPO YLO1
  • 052218Z 21012KT 9999 OVC006 17/16 Q1014 TEMPO BKN007 RMK YLO1 TEMPO GRN
  • 052150Z 20011KT 9999 OVC007 18/16 Q1014 TEMPO 5000 -DZ SCT006 BKN008 RMK GRN TEMPO YLO1

TAF TAF EGVO
Valid from the 06 at 00:00 until the 06 at 12:00 UTC


052249Z 0600/0612 20010KT 9999 BKN006
TEMPO 0600/0608 5000 -DZ
PROB40
TEMPO 0601/0608 3000 DZ SCT003 BKN008
BECMG 0609/0612 BKN020



MET'MAP, your aeronautical weather chart ! - Copyright ORBIFLY December 2007 - Disclaimer

ORBIFLY MET'MAP TEAM :

Programming & Development : Alexandra Zaïnal
Concept & original design : Baudouin d'Aumeries
Assistance for programming : Marc-Olivier Méhu
Technical & hardware support : Manuel Goepfert

Contact : metmap@orbifly.com




SOURCES & CREDITS :

   NOAA